createdAt,value
2022-08-14T00:00:07.252Z,6.53
2022-08-14T00:02:11.661Z,7.20
2022-08-14T00:04:35.795Z,6.67
2022-08-14T00:06:37.474Z,6.47
2022-08-14T00:08:44.930Z,6.23
2022-08-14T00:10:52.071Z,7.47
2022-08-14T00:12:56.754Z,6.80
2022-08-14T00:14:59.243Z,6.17
2022-08-14T00:17:01.989Z,6.87
2022-08-14T00:19:18.813Z,6.53
2022-08-14T00:21:30.961Z,6.37
2022-08-14T00:23:35.068Z,5.97
2022-08-14T00:25:42.103Z,6.63
2022-08-14T00:27:44.690Z,7.70
2022-08-14T00:29:50.794Z,6.87
2022-08-14T00:31:56.388Z,6.20
2022-08-14T00:33:58.780Z,6.87
2022-08-14T00:36:37.265Z,6.20
2022-08-14T00:38:44.792Z,6.80
2022-08-14T00:40:48.086Z,6.57
2022-08-14T00:42:55.767Z,6.50
2022-08-14T00:44:58.216Z,6.20
2022-08-14T00:47:00.447Z,6.80
2022-08-14T00:49:02.586Z,6.43
2022-08-14T00:51:04.773Z,6.63
2022-08-14T00:53:10.510Z,5.70
2022-08-14T00:55:16.104Z,5.30
2022-08-14T00:57:18.985Z,6.43
2022-08-14T00:59:20.586Z,7.20
2022-08-14T01:01:22.490Z,7.47
2022-08-14T01:03:25.930Z,6.70
2022-08-14T01:05:41.624Z,7.00
2022-08-14T01:07:56.854Z,10.80
2022-08-14T01:10:02.580Z,7.00
2022-08-14T01:12:05.945Z,7.67
2022-08-14T01:14:25.711Z,6.80
2022-08-14T01:16:30.795Z,6.90
2022-08-14T01:18:33.184Z,6.97
2022-08-14T01:20:39.879Z,6.80
2022-08-14T01:22:43.504Z,7.30
2022-08-14T01:24:45.280Z,6.10
2022-08-14T01:26:50.816Z,6.13
2022-08-14T01:28:56.955Z,6.77
2022-08-14T01:30:59.936Z,5.23
2022-08-14T01:33:01.598Z,6.87
2022-08-14T01:35:19.829Z,6.90
2022-08-14T01:37:27.942Z,5.77
2022-08-14T01:39:32.357Z,6.77
2022-08-14T01:41:35.324Z,7.03
2022-08-14T01:43:56.656Z,6.10
2022-08-14T01:46:06.734Z,6.90
2022-08-14T01:48:13.771Z,5.80
2022-08-14T01:50:15.785Z,7.93
2022-08-14T01:52:34.462Z,6.60
2022-08-14T01:54:40.306Z,6.50
2022-08-14T01:56:42.089Z,6.30
2022-08-14T01:58:58.058Z,7.00
2022-08-14T02:00:59.948Z,7.07
2022-08-14T02:03:02.003Z,7.13
2022-08-14T02:05:03.976Z,7.20
2022-08-14T02:07:07.134Z,7.30
2022-08-14T02:09:19.323Z,7.47
2022-08-14T02:11:26.251Z,7.93
2022-08-14T02:13:27.792Z,7.57
2022-08-14T02:15:32.328Z,7.60
2022-08-14T02:17:34.104Z,7.43
2022-08-14T02:19:35.697Z,7.07
2022-08-14T02:21:43.362Z,7.87
2022-08-14T02:23:46.685Z,7.60
2022-08-14T02:25:54.716Z,7.37
2022-08-14T02:28:22.670Z,7.20
2022-08-14T02:30:23.864Z,8.10
2022-08-14T02:32:30.240Z,9.80
2022-08-14T02:34:46.218Z,8.03
2022-08-14T02:37:05.467Z,7.60
2022-08-14T02:39:10.498Z,7.97
2022-08-14T02:41:13.237Z,8.20
2022-08-14T02:43:16.475Z,8.80
2022-08-14T02:45:24.616Z,8.20
2022-08-14T02:47:29.042Z,9.43
2022-08-14T02:49:33.914Z,8.10
2022-08-14T02:51:37.089Z,7.63
2022-08-14T02:53:42.528Z,8.20
2022-08-14T02:55:44.157Z,7.60
2022-08-14T02:57:46.349Z,8.73
2022-08-14T03:00:01.002Z,8.33
2022-08-14T03:02:04.620Z,8.63
2022-08-14T03:04:07.058Z,8.67
2022-08-14T03:06:20.466Z,8.33
2022-08-14T03:08:38.767Z,9.07
2022-08-14T03:10:48.548Z,9.53
2022-08-14T03:12:51.022Z,9.50
2022-08-14T03:14:53.293Z,9.10
2022-08-14T03:16:56.242Z,9.90
2022-08-14T03:18:59.917Z,8.70
2022-08-14T03:21:04.101Z,9.07
2022-08-14T03:23:05.861Z,10.00
2022-08-14T03:25:10.015Z,10.30
2022-08-14T03:27:12.841Z,8.97
2022-08-14T03:29:17.623Z,9.53
2022-08-14T03:31:20.319Z,10.00
2022-08-14T03:33:24.094Z,10.30
2022-08-14T03:35:30.813Z,10.07
2022-08-14T03:39:10.929Z,10.17
2022-08-14T03:40:00.860Z,9.80
2022-08-14T03:42:02.487Z,11.30
2022-08-14T03:45:26.801Z,11.70
2022-08-14T03:46:51.925Z,12.10
2022-08-14T03:48:54.104Z,13.20
2022-08-14T03:50:56.216Z,13.20
2022-08-14T03:53:00.488Z,14.27
2022-08-14T03:55:03.493Z,13.50
2022-08-14T03:57:05.658Z,14.37
2022-08-14T03:59:07.254Z,14.57
2022-08-14T04:01:20.636Z,14.60
2022-08-14T04:03:24.173Z,16.13
2022-08-14T04:05:27.349Z,15.53
2022-08-14T04:07:32.755Z,14.27
2022-08-14T04:09:37.552Z,15.17
2022-08-14T04:11:39.126Z,14.90
2022-08-14T04:13:43.680Z,14.27
2022-08-14T04:15:56.144Z,16.10
2022-08-14T04:18:04.642Z,14.47
2022-08-14T04:20:07.290Z,15.87
2022-08-14T04:22:13.550Z,15.83
2022-08-14T04:24:19.978Z,15.97
2022-08-14T04:26:27.006Z,15.30
2022-08-14T04:29:05.418Z,16.27
2022-08-14T04:31:05.801Z,15.37
2022-08-14T04:33:18.454Z,16.13
2022-08-14T04:35:23.708Z,17.03
2022-08-14T04:37:26.998Z,17.20
2022-08-14T04:39:30.743Z,16.30
2022-08-14T04:41:33.430Z,17.73
2022-08-14T04:43:38.437Z,17.60
2022-08-14T04:45:40.558Z,19.03
2022-08-14T04:47:46.342Z,17.63
2022-08-14T04:49:56.895Z,17.93
2022-08-14T04:52:00.054Z,19.67
2022-08-14T04:54:06.135Z,18.83
2022-08-14T04:56:30.137Z,18.07
2022-08-14T04:58:34.115Z,19.70
2022-08-14T05:00:36.123Z,18.33
2022-08-14T05:02:37.813Z,19.80
2022-08-14T05:04:39.970Z,19.47
2022-08-14T05:06:49.089Z,21.70
2022-08-14T05:08:57.028Z,22.03
2022-08-14T05:11:04.899Z,21.80
2022-08-14T05:13:14.480Z,21.13
2022-08-14T05:15:17.800Z,22.30
2022-08-14T05:17:20.077Z,22.17
2022-08-14T05:19:27.240Z,23.23
2022-08-14T05:21:58.224Z,22.30
2022-08-14T05:23:53.824Z,22.67
2022-08-14T05:25:59.319Z,22.30
2022-08-14T05:28:12.474Z,23.13
2022-08-14T05:30:18.067Z,22.20
2022-08-14T05:32:19.698Z,21.17
2022-08-14T05:34:21.749Z,22.13
2022-08-14T05:36:30.398Z,21.47
2022-08-14T05:38:37.133Z,19.83
2022-08-14T05:40:39.992Z,19.77
2022-08-14T05:42:42.327Z,19.10
2022-08-14T05:44:49.788Z,19.27
2022-08-14T05:46:55.743Z,19.60
2022-08-14T05:48:59.098Z,19.57
2022-08-14T05:51:00.707Z,18.20
2022-08-14T05:53:03.344Z,18.70
2022-08-14T05:55:06.658Z,18.43
2022-08-14T05:57:08.240Z,18.40
2022-08-14T05:59:11.620Z,19.07
2022-08-14T06:01:14.607Z,17.73
2022-08-14T06:03:19.134Z,15.83
2022-08-14T06:05:23.243Z,17.20
2022-08-14T06:07:25.071Z,17.10
2022-08-14T06:09:26.671Z,19.40
2022-08-14T06:11:30.935Z,17.40
2022-08-14T06:13:44.490Z,15.60
2022-08-14T06:15:47.809Z,14.33
2022-08-14T06:17:58.482Z,14.60
2022-08-14T06:20:01.359Z,14.83
2022-08-14T06:22:03.480Z,12.80
2022-08-14T06:24:05.483Z,12.20
2022-08-14T06:26:12.234Z,14.40
2022-08-14T06:28:27.495Z,14.30
2022-08-14T06:30:45.803Z,14.80
2022-08-14T06:32:52.575Z,15.60
2022-08-14T06:35:09.671Z,16.87
2022-08-14T06:37:16.704Z,12.80
2022-08-14T06:39:18.601Z,15.83
2022-08-14T06:41:58.355Z,14.53
2022-08-14T06:44:00.233Z,14.50
2022-08-14T06:46:03.786Z,13.50
2022-08-14T06:48:13.027Z,11.90
2022-08-14T06:50:18.915Z,12.50
2022-08-14T06:52:23.541Z,12.07
2022-08-14T06:54:31.244Z,11.40
2022-08-14T06:56:33.532Z,11.00
2022-08-14T06:58:36.820Z,10.63
2022-08-14T07:00:38.824Z,9.33
2022-08-14T07:02:43.603Z,10.80
2022-08-14T07:04:45.476Z,10.63
2022-08-14T07:06:48.483Z,9.83
2022-08-14T07:08:50.140Z,11.90
2022-08-14T07:10:54.516Z,10.40
2022-08-14T07:13:04.236Z,11.23
2022-08-14T07:15:07.450Z,9.37
2022-08-14T07:17:09.025Z,9.70
2022-08-14T07:19:11.244Z,9.20
2022-08-14T07:21:12.840Z,10.77
2022-08-14T07:23:19.942Z,10.37
2022-08-14T07:25:22.923Z,8.57
2022-08-14T07:27:36.138Z,9.13
2022-08-14T07:29:51.671Z,9.37
2022-08-14T07:31:53.819Z,9.57
2022-08-14T07:33:55.432Z,9.77
2022-08-14T07:36:00.435Z,9.60
2022-08-14T07:38:02.058Z,9.53
2022-08-14T07:40:06.449Z,8.80
2022-08-14T07:42:08.232Z,10.00
2022-08-14T07:44:29.489Z,9.30
2022-08-14T07:46:31.880Z,9.93
2022-08-14T07:48:38.197Z,9.43
2022-08-14T07:50:40.511Z,8.80
2022-08-14T07:52:48.774Z,9.80
2022-08-14T07:54:50.615Z,9.30
2022-08-14T07:56:56.554Z,8.60
2022-08-14T07:58:58.699Z,9.03
2022-08-14T08:01:01.436Z,8.07
2022-08-14T08:03:04.709Z,9.27
2022-08-14T08:05:07.871Z,8.63
2022-08-14T08:07:10.196Z,9.70
2022-08-14T08:09:12.531Z,8.57
2022-08-14T08:11:16.501Z,8.37
2022-08-14T08:13:22.337Z,9.23
2022-08-14T08:15:27.492Z,9.13
2022-08-14T08:17:34.963Z,8.00
2022-08-14T08:19:39.954Z,9.00
2022-08-14T08:21:43.526Z,9.57
2022-08-14T08:23:50.932Z,9.80
2022-08-14T08:25:53.198Z,9.77
2022-08-14T08:28:08.195Z,9.87
2022-08-14T08:30:13.305Z,9.10
2022-08-14T08:32:14.906Z,8.03
2022-08-14T08:34:18.252Z,9.37
2022-08-14T08:36:20.061Z,8.90
2022-08-14T08:39:17.616Z,8.93
2022-08-14T08:40:47.792Z,9.37
2022-08-14T08:42:52.044Z,7.87
2022-08-14T08:44:54.914Z,9.77
2022-08-14T08:46:58.549Z,10.73
2022-08-14T08:51:03.099Z,8.10
2022-08-14T08:53:08.766Z,8.57
2022-08-14T08:55:10.932Z,8.97
2022-08-14T08:57:15.703Z,8.80
2022-08-14T08:59:30.942Z,8.43
2022-08-14T09:01:33.336Z,8.97
2022-08-14T09:03:43.969Z,8.33
2022-08-14T09:05:53.961Z,8.10
2022-08-14T09:08:09.368Z,9.17
2022-08-14T09:10:30.911Z,8.70
2022-08-14T09:12:33.194Z,8.70
2022-08-14T09:14:34.958Z,8.23
2022-08-14T09:16:41.554Z,8.13
2022-08-14T09:18:49.946Z,8.47
2022-08-14T09:20:58.630Z,8.70
2022-08-14T09:23:00.776Z,9.33
2022-08-14T09:25:03.364Z,8.70
2022-08-14T09:27:08.671Z,12.70
2022-08-14T09:29:23.836Z,8.67
2022-08-14T09:31:26.783Z,10.07
2022-08-14T09:33:58.201Z,10.10
2022-08-14T09:36:33.300Z,12.57
2022-08-14T09:38:45.940Z,8.23
2022-08-14T09:40:59.140Z,9.20
2022-08-14T09:43:11.315Z,8.80
2022-08-14T09:45:15.405Z,8.77
2022-08-14T09:47:18.579Z,8.30
2022-08-14T09:49:31.832Z,9.33
2022-08-14T09:51:44.909Z,8.50
2022-08-14T09:54:19.461Z,9.77
2022-08-14T09:56:24.315Z,8.67
2022-08-14T09:58:37.874Z,9.27
2022-08-14T10:00:45.150Z,9.53
2022-08-14T10:02:54.617Z,7.30
2022-08-14T10:05:05.945Z,8.67
2022-08-14T10:07:10.394Z,8.27
2022-08-14T10:09:16.558Z,7.60
2022-08-14T10:11:23.576Z,8.33
2022-08-14T10:13:26.103Z,8.30
2022-08-14T10:15:30.964Z,8.27
2022-08-14T10:17:33.125Z,8.07
2022-08-14T10:19:48.454Z,7.57
2022-08-14T10:23:12.019Z,7.93
2022-08-14T10:24:37.035Z,8.30
2022-08-14T10:26:39.217Z,7.20
2022-08-14T10:29:18.699Z,8.10
2022-08-14T10:31:16.550Z,7.80
2022-08-14T10:33:27.697Z,6.53
2022-08-14T10:35:39.943Z,6.87
2022-08-14T10:37:45.627Z,6.53
2022-08-14T10:40:05.522Z,7.17
2022-08-14T10:42:16.473Z,6.53
2022-08-14T10:44:23.419Z,7.97
2022-08-14T10:47:37.182Z,6.40
2022-08-14T10:48:56.730Z,7.40
2022-08-14T10:50:58.284Z,6.00
2022-08-14T10:53:03.201Z,6.40
2022-08-14T10:55:07.375Z,7.93
2022-08-14T10:57:14.357Z,6.20
2022-08-14T10:59:18.858Z,5.93
2022-08-14T11:01:30.696Z,5.83
2022-08-14T11:03:56.766Z,7.03
2022-08-14T11:05:58.906Z,5.43
2022-08-14T11:08:02.004Z,6.03
2022-08-14T11:10:14.516Z,6.40
2022-08-14T11:12:34.295Z,6.97
2022-08-14T11:14:41.037Z,7.20
2022-08-14T11:16:53.437Z,6.57
2022-08-14T11:18:59.641Z,7.00
2022-08-14T11:21:01.942Z,6.53
2022-08-14T11:23:08.706Z,6.77
2022-08-14T11:25:12.611Z,6.70
2022-08-14T11:27:23.668Z,6.47
2022-08-14T11:29:36.353Z,6.13
2022-08-14T11:31:39.361Z,7.83
2022-08-14T11:33:43.459Z,6.03
2022-08-14T11:35:48.558Z,5.93
2022-08-14T11:37:52.120Z,6.37
2022-08-14T11:39:59.466Z,6.77
2022-08-14T11:42:01.210Z,6.60
2022-08-14T11:44:45.419Z,6.60
2022-08-14T11:46:44.496Z,6.07
2022-08-14T11:49:01.591Z,6.37
2022-08-14T11:51:13.071Z,6.53
2022-08-14T11:53:20.604Z,5.90
2022-08-14T11:55:27.118Z,6.80
2022-08-14T11:57:28.771Z,5.73
2022-08-14T11:59:33.581Z,7.13
2022-08-14T12:01:41.216Z,6.73
2022-08-14T12:03:52.424Z,6.40
2022-08-14T12:06:05.642Z,6.37
2022-08-14T12:08:12.151Z,6.53
2022-08-14T12:10:26.728Z,6.50
2022-08-14T12:12:42.222Z,6.17
2022-08-14T12:14:50.031Z,6.07
2022-08-14T12:16:59.687Z,6.83
2022-08-14T12:19:03.789Z,6.87
2022-08-14T12:21:15.749Z,6.30
2022-08-14T12:23:22.823Z,6.10
2022-08-14T12:25:25.217Z,6.27
2022-08-14T12:27:41.364Z,5.77
2022-08-14T12:29:54.161Z,7.47
2022-08-14T12:32:00.739Z,6.40
2022-08-14T12:34:04.342Z,6.90
2022-08-14T12:36:20.695Z,6.40
2022-08-14T12:38:33.071Z,6.20
2022-08-14T12:40:46.119Z,6.93
2022-08-14T12:42:53.772Z,6.10
2022-08-14T12:44:57.136Z,6.23
2022-08-14T12:47:07.285Z,8.83
2022-08-14T12:49:11.004Z,6.57
2022-08-14T12:51:16.832Z,6.20
2022-08-14T12:53:19.524Z,5.93
2022-08-14T12:55:21.682Z,5.70
2022-08-14T12:57:32.950Z,5.80
2022-08-14T12:59:43.127Z,6.00
2022-08-14T13:01:59.324Z,5.83
2022-08-14T13:04:07.391Z,6.27
2022-08-14T13:06:09.219Z,8.20
2022-08-14T13:08:33.630Z,6.20
2022-08-14T13:10:47.316Z,5.97
2022-08-14T13:13:13.291Z,5.73
2022-08-14T13:15:16.953Z,6.20
2022-08-14T13:17:23.594Z,5.67
2022-08-14T13:19:28.229Z,6.57
2022-08-14T13:21:30.697Z,6.27
2022-08-14T13:23:53.345Z,6.00
2022-08-14T13:25:56.742Z,6.00
2022-08-14T13:27:58.831Z,5.70
2022-08-14T13:30:01.695Z,5.53
2022-08-14T13:32:06.269Z,6.83
2022-08-14T13:34:12.518Z,5.50
2022-08-14T13:36:24.012Z,6.07
2022-08-14T13:38:27.996Z,5.90
2022-08-14T13:40:29.773Z,6.10
2022-08-14T13:42:31.928Z,5.63
2022-08-14T13:44:36.281Z,5.20
2022-08-14T13:46:44.559Z,5.67
2022-08-14T13:48:48.221Z,5.80
2022-08-14T13:50:55.279Z,5.50
2022-08-14T13:52:59.719Z,6.00
2022-08-14T13:55:04.955Z,5.50
2022-08-14T13:57:11.469Z,5.53
2022-08-14T13:59:20.090Z,5.53
2022-08-14T14:01:25.824Z,5.30
2022-08-14T14:03:30.160Z,5.70
2022-08-14T14:05:52.725Z,5.70
2022-08-14T14:07:59.941Z,5.40
2022-08-14T14:10:05.410Z,5.60
2022-08-14T14:12:37.899Z,5.50
2022-08-14T14:14:50.943Z,5.93
2022-08-14T14:16:53.508Z,5.77
2022-08-14T14:18:57.601Z,5.13
2022-08-14T14:20:59.332Z,6.67
2022-08-14T14:23:09.645Z,5.60
2022-08-14T14:25:19.425Z,6.10
2022-08-14T14:27:41.071Z,5.83
2022-08-14T14:29:47.523Z,6.23
2022-08-14T14:31:52.781Z,5.97
2022-08-14T14:33:59.799Z,5.93
2022-08-14T14:36:03.254Z,6.10
2022-08-14T14:38:13.178Z,5.83
2022-08-14T14:40:52.183Z,6.43
2022-08-14T14:42:47.999Z,5.00
2022-08-14T14:45:01.178Z,5.67
2022-08-14T14:47:03.254Z,6.07
2022-08-14T14:49:10.095Z,6.07
2022-08-14T14:51:16.893Z,6.07
2022-08-14T14:53:20.541Z,6.77
2022-08-14T14:55:22.384Z,5.77
2022-08-14T14:57:30.310Z,5.40
2022-08-14T14:59:38.042Z,7.40
2022-08-14T15:01:41.115Z,5.93
2022-08-14T15:03:43.346Z,6.37
2022-08-14T15:05:44.938Z,5.83
2022-08-14T15:07:49.988Z,6.20
2022-08-14T15:09:53.207Z,6.10
2022-08-14T15:11:54.906Z,5.50
2022-08-14T15:13:56.956Z,6.43
2022-08-14T15:15:59.777Z,5.93
2022-08-14T15:18:02.328Z,5.70
2022-08-14T15:20:10.699Z,6.53
2022-08-14T15:22:19.416Z,7.20
2022-08-14T15:24:26.398Z,5.83
2022-08-14T15:26:32.017Z,6.47
2022-08-14T15:28:38.652Z,6.30
2022-08-14T15:30:41.825Z,6.30
2022-08-14T15:32:43.515Z,6.93
2022-08-14T15:34:51.765Z,6.47
2022-08-14T15:36:54.579Z,7.70
2022-08-14T15:38:56.282Z,6.17
2022-08-14T15:40:59.262Z,6.27
2022-08-14T15:43:09.094Z,5.97
2022-08-14T15:45:12.975Z,5.90
2022-08-14T15:47:16.561Z,6.40
2022-08-14T15:49:34.891Z,5.83
2022-08-14T15:51:42.282Z,6.37
2022-08-14T15:53:46.630Z,5.60
2022-08-14T15:55:52.925Z,5.90
2022-08-14T15:58:02.050Z,6.20
2022-08-14T16:00:11.407Z,5.67
2022-08-14T16:02:27.431Z,6.47
2022-08-14T16:04:29.340Z,6.00
2022-08-14T16:06:31.098Z,6.20
2022-08-14T16:08:32.908Z,6.30
2022-08-14T16:10:41.525Z,6.67
2022-08-14T16:12:50.053Z,6.80
2022-08-14T16:14:51.706Z,6.23
2022-08-14T16:17:00.036Z,6.83
2022-08-14T16:19:04.063Z,5.97
2022-08-14T16:21:12.487Z,6.80
2022-08-14T16:23:15.622Z,7.20
2022-08-14T16:25:19.470Z,7.60
2022-08-14T16:27:39.343Z,6.63
2022-08-14T16:29:43.055Z,6.60
2022-08-14T16:31:47.093Z,5.77
2022-08-14T16:33:59.594Z,6.37
2022-08-14T16:36:04.932Z,6.50
2022-08-14T16:38:45.758Z,6.90
2022-08-14T16:40:48.608Z,6.13
2022-08-14T16:43:04.582Z,5.70
2022-08-14T16:45:12.547Z,7.90
2022-08-14T16:47:15.411Z,5.60
2022-08-14T16:49:18.493Z,6.10
2022-08-14T16:51:21.777Z,6.73
2022-08-14T16:53:23.650Z,6.40
2022-08-14T16:55:30.531Z,6.10
2022-08-14T16:57:32.710Z,4.87
2022-08-14T16:59:52.751Z,5.70
2022-08-14T17:01:57.862Z,6.47
2022-08-14T17:04:02.324Z,6.67
2022-08-14T17:06:30.869Z,5.60
2022-08-14T17:08:41.379Z,5.90
2022-08-14T17:11:04.750Z,6.47
2022-08-14T17:13:17.148Z,5.37
2022-08-14T17:15:18.882Z,5.83
2022-08-14T17:17:22.448Z,7.60
2022-08-14T17:19:25.814Z,5.87
2022-08-14T17:21:37.587Z,5.43
2022-08-14T17:23:39.858Z,6.20
2022-08-14T17:25:49.287Z,5.20
2022-08-14T17:28:49.756Z,5.30
2022-08-14T17:30:49.018Z,5.33
2022-08-14T17:32:57.530Z,6.20
2022-08-14T17:35:01.897Z,5.97
2022-08-14T17:37:05.609Z,6.10
2022-08-14T17:39:17.622Z,4.63
2022-08-14T17:41:21.583Z,6.20
2022-08-14T17:43:29.434Z,4.80
2022-08-14T17:45:44.369Z,4.27
2022-08-14T17:47:49.102Z,6.20
2022-08-14T17:49:53.031Z,5.07
2022-08-14T17:51:57.166Z,4.43
2022-08-14T17:54:08.549Z,4.80
2022-08-14T17:56:10.526Z,7.17
2022-08-14T17:58:20.527Z,13.73
2022-08-14T18:00:23.074Z,5.00
2022-08-14T18:02:31.467Z,4.37
2022-08-14T18:04:35.040Z,5.30
2022-08-14T18:06:38.626Z,4.90
2022-08-14T18:08:58.876Z,4.77
2022-08-14T18:11:03.391Z,5.17
2022-08-14T18:13:05.423Z,4.40
2022-08-14T18:15:14.494Z,4.97
2022-08-14T18:17:18.874Z,5.00
2022-08-14T18:19:30.031Z,4.70
2022-08-14T18:21:56.610Z,5.13
2022-08-14T18:23:53.336Z,4.23
2022-08-14T18:25:58.793Z,4.87
2022-08-14T18:28:16.001Z,4.73
2022-08-14T18:30:33.404Z,5.20
2022-08-14T18:32:47.474Z,6.07
2022-08-14T18:34:59.435Z,4.90
2022-08-14T18:37:16.983Z,5.53
2022-08-14T18:40:03.631Z,5.37
2022-08-14T18:42:32.171Z,5.20
2022-08-14T18:45:16.063Z,5.03
2022-08-14T18:47:23.293Z,4.53
2022-08-14T18:49:24.909Z,4.83
2022-08-14T18:51:45.675Z,6.00
2022-08-14T18:53:56.970Z,5.13
2022-08-14T18:56:00.089Z,5.10
2022-08-14T18:58:26.569Z,7.00
2022-08-14T19:00:53.067Z,6.53
2022-08-14T19:02:55.557Z,8.00
2022-08-14T19:05:02.647Z,7.57
2022-08-14T19:07:16.233Z,8.33
2022-08-14T19:10:06.816Z,6.73
2022-08-14T19:12:15.354Z,9.23
2022-08-14T19:14:44.134Z,7.50
2022-08-14T19:16:53.570Z,6.73
2022-08-14T19:19:00.232Z,13.37
2022-08-14T19:21:13.524Z,7.77
2022-08-14T19:23:17.367Z,7.07
2022-08-14T19:25:47.496Z,8.00
2022-08-14T19:28:27.374Z,7.00
2022-08-14T19:30:33.541Z,7.03
2022-08-14T19:32:38.300Z,5.60
2022-08-14T19:34:48.023Z,5.90
2022-08-14T19:37:05.527Z,5.73
2022-08-14T19:39:08.058Z,6.40
2022-08-14T19:41:13.689Z,7.10
2022-08-14T19:43:56.215Z,8.63
2022-08-14T19:45:45.965Z,7.47
2022-08-14T19:47:50.082Z,7.13
2022-08-14T19:50:24.450Z,6.10
2022-08-14T19:52:22.198Z,6.20
2022-08-14T19:54:29.640Z,6.30
2022-08-14T19:56:35.983Z,6.57
2022-08-14T19:58:54.468Z,7.03
2022-08-14T20:00:58.952Z,7.27
2022-08-14T20:03:10.915Z,6.53
2022-08-14T20:05:18.006Z,7.17
2022-08-14T20:07:27.403Z,7.53
2022-08-14T20:11:04.788Z,7.20
2022-08-14T20:12:29.184Z,6.87
2022-08-14T20:14:38.419Z,6.40
2022-08-14T20:16:42.697Z,6.80
2022-08-14T20:18:49.895Z,8.47
2022-08-14T20:20:54.980Z,7.67
2022-08-14T20:22:56.647Z,6.60
2022-08-14T20:25:13.770Z,7.10
2022-08-14T20:27:33.496Z,6.40
2022-08-14T20:29:37.948Z,6.83
2022-08-14T20:31:40.731Z,8.73
2022-08-14T20:34:24.387Z,6.97
2022-08-14T20:36:31.959Z,6.73
2022-08-14T20:38:34.255Z,5.73
2022-08-14T20:40:50.328Z,6.33
2022-08-14T20:42:54.085Z,7.17
2022-08-14T20:45:03.014Z,5.93
2022-08-14T20:47:05.803Z,7.40
2022-08-14T20:49:12.887Z,6.43
2022-08-14T20:51:23.983Z,7.87
2022-08-14T20:53:35.867Z,8.93
2022-08-14T20:55:41.413Z,6.90
2022-08-14T20:57:46.825Z,6.30
2022-08-14T20:59:56.768Z,6.60
2022-08-14T21:02:28.987Z,6.30
2022-08-14T21:04:36.265Z,7.10
2022-08-14T21:07:24.775Z,8.03
2022-08-14T21:09:11.660Z,6.73
2022-08-14T21:11:17.925Z,5.90
2022-08-14T21:14:09.074Z,6.17
2022-08-14T21:15:42.121Z,6.20
2022-08-14T21:17:45.170Z,6.73
2022-08-14T21:19:50.535Z,6.50
2022-08-14T21:21:56.672Z,6.07
2022-08-14T21:23:58.580Z,6.87
2022-08-14T21:26:00.610Z,5.80
2022-08-14T21:28:05.200Z,6.23
2022-08-14T21:30:11.451Z,8.87
2022-08-14T21:32:20.778Z,6.20
2022-08-14T21:34:27.400Z,5.60
2022-08-14T21:36:34.690Z,6.63
2022-08-14T21:38:43.278Z,6.23
2022-08-14T21:40:49.777Z,6.70
2022-08-14T21:42:51.491Z,8.40
2022-08-14T21:44:54.253Z,5.90
2022-08-14T21:46:56.695Z,7.30
2022-08-14T21:48:58.325Z,5.73
2022-08-14T21:51:53.724Z,9.00
2022-08-14T21:53:27.537Z,8.03
2022-08-14T21:55:32.917Z,6.53
2022-08-14T21:57:56.288Z,6.57
2022-08-14T22:00:02.003Z,5.67
2022-08-14T22:02:05.601Z,8.00
2022-08-14T22:04:33.157Z,7.93
2022-08-14T22:06:32.206Z,6.67
2022-08-14T22:08:33.844Z,7.20
2022-08-14T22:10:35.958Z,6.10
2022-08-14T22:12:45.287Z,6.10
2022-08-14T22:15:00.960Z,5.23
2022-08-14T22:17:12.670Z,5.33
2022-08-14T22:19:21.131Z,5.83
2022-08-14T22:21:22.860Z,5.80
2022-08-14T22:23:27.607Z,6.07
2022-08-14T22:25:33.874Z,5.10
2022-08-14T22:27:55.909Z,5.97
2022-08-14T22:29:58.740Z,5.93
2022-08-14T22:32:00.425Z,5.60
2022-08-14T22:34:09.899Z,10.07
2022-08-14T22:36:12.574Z,6.33
2022-08-14T22:38:35.406Z,5.83
2022-08-14T22:40:58.391Z,5.20
2022-08-14T22:43:08.319Z,6.63
2022-08-14T22:45:10.856Z,6.10
2022-08-14T22:47:17.074Z,11.87
2022-08-14T22:50:30.725Z,8.67
2022-08-14T22:51:50.234Z,4.97
2022-08-14T22:53:56.152Z,5.50
2022-08-14T22:55:59.829Z,5.63
2022-08-14T22:58:02.539Z,6.07
2022-08-14T23:00:06.895Z,5.17
2022-08-14T23:02:14.059Z,5.13
2022-08-14T23:04:35.033Z,5.93
2022-08-14T23:07:02.515Z,5.50
2022-08-14T23:09:34.845Z,5.90
2022-08-14T23:11:22.660Z,4.40
2022-08-14T23:13:24.628Z,5.07
2022-08-14T23:15:28.991Z,5.47
2022-08-14T23:17:39.492Z,5.33
2022-08-14T23:19:42.162Z,5.17
2022-08-14T23:21:46.181Z,5.20
2022-08-14T23:23:49.307Z,5.50
2022-08-14T23:26:46.895Z,5.50
2022-08-14T23:28:34.556Z,4.80
2022-08-14T23:30:48.956Z,6.20
2022-08-14T23:32:52.436Z,6.13
2022-08-14T23:34:54.977Z,4.80
2022-08-14T23:36:59.341Z,6.53
2022-08-14T23:39:12.360Z,5.57
2022-08-14T23:41:22.429Z,5.20
2022-08-14T23:43:24.515Z,8.53
2022-08-14T23:45:36.742Z,5.70
2022-08-14T23:47:52.009Z,8.37
2022-08-14T23:50:00.677Z,6.33
2022-08-14T23:52:50.480Z,6.50
2022-08-14T23:54:49.411Z,7.00
2022-08-14T23:56:48.938Z,7.33
2022-08-14T23:59:04.362Z,5.77
